sensor_id;sensor_type;location;lat;lon;timestamp;pressure;altitude;pressure_sealevel;temperature;humidity
59829;BME280;45708;51.848;107.620;2023-04-22T00:02:54;96114.31;;;3.64;30.18
59829;BME280;45708;51.848;107.620;2023-04-22T00:07:55;96105.47;;;4.69;29.47
59829;BME280;45708;51.848;107.620;2023-04-22T00:12:56;96082.09;;;5.99;27.52
59829;BME280;45708;51.848;107.620;2023-04-22T00:17:59;96086.09;;;6.51;27.21
59829;BME280;45708;51.848;107.620;2023-04-22T00:23:00;96099.38;;;6.49;27.17
59829;BME280;45708;51.848;107.620;2023-04-22T00:28:01;96098.19;;;7.07;27.35
59829;BME280;45708;51.848;107.620;2023-04-22T00:33:02;96095.50;;;8.44;24.98
59829;BME280;45708;51.848;107.620;2023-04-22T00:38:02;96094.84;;;9.01;25.15
59829;BME280;45708;51.848;107.620;2023-04-22T00:43:03;96111.47;;;8.87;24.06
59829;BME280;45708;51.848;107.620;2023-04-22T00:48:05;96108.03;;;8.42;25.12
59829;BME280;45708;51.848;107.620;2023-04-22T00:53:06;96107.28;;;8.78;23.89
59829;BME280;45708;51.848;107.620;2023-04-22T00:58:09;96113.19;;;8.65;23.66
59829;BME280;45708;51.848;107.620;2023-04-22T01:03:10;96099.66;;;8.83;22.58
59829;BME280;45708;51.848;107.620;2023-04-22T01:08:11;96107.91;;;8.80;21.38
59829;BME280;45708;51.848;107.620;2023-04-22T01:13:12;96085.59;;;9.27;21.85
59829;BME280;45708;51.848;107.620;2023-04-22T01:18:13;96108.47;;;8.75;20.22
59829;BME280;45708;51.848;107.620;2023-04-22T01:23:21;96103.53;;;9.38;19.88
59829;BME280;45708;51.848;107.620;2023-04-22T01:28:22;96098.84;;;9.76;20.16
59829;BME280;45708;51.848;107.620;2023-04-22T01:33:23;96105.91;;;10.18;19.66
59829;BME280;45708;51.848;107.620;2023-04-22T01:38:24;96110.75;;;8.64;20.05
59829;BME280;45708;51.848;107.620;2023-04-22T01:43:25;96111.78;;;9.13;19.97
59829;BME280;45708;51.848;107.620;2023-04-22T01:48:26;96109.03;;;10.50;19.90
59829;BME280;45708;51.848;107.620;2023-04-22T01:53:27;96084.34;;;10.64;18.27
59829;BME280;45708;51.848;107.620;2023-04-22T01:58:28;96100.16;;;10.08;18.18
59829;BME280;45708;51.848;107.620;2023-04-22T02:03:29;96097.25;;;9.39;18.48
59829;BME280;45708;51.848;107.620;2023-04-22T02:08:30;96109.97;;;9.71;17.93
59829;BME280;45708;51.848;107.620;2023-04-22T02:13:35;96105.63;;;9.06;19.30
59829;BME280;45708;51.848;107.620;2023-04-22T02:18:36;96079.47;;;9.62;19.72
59829;BME280;45708;51.848;107.620;2023-04-22T02:23:38;96088.19;;;10.33;18.44
59829;BME280;45708;51.848;107.620;2023-04-22T02:28:39;96089.50;;;9.52;18.88
59829;BME280;45708;51.848;107.620;2023-04-22T02:33:40;96056.94;;;9.02;19.62
59829;BME280;45708;51.848;107.620;2023-04-22T02:38:40;96082.19;;;7.40;21.70
59829;BME280;45708;51.848;107.620;2023-04-22T02:43:41;96079.50;;;5.83;23.00
59829;BME280;45708;51.848;107.620;2023-04-22T02:48:42;96082.38;;;4.22;23.82
59829;BME280;45708;51.848;107.620;2023-04-22T02:53:43;96067.25;;;3.82;24.73
59829;BME280;45708;51.848;107.620;2023-04-22T02:58:44;96082.16;;;3.90;25.08
59829;BME280;45708;51.848;107.620;2023-04-22T03:03:44;96057.78;;;4.07;24.46
59829;BME280;45708;51.848;107.620;2023-04-22T03:08:47;96049.31;;;3.87;24.67
59829;BME280;45708;51.848;107.620;2023-04-22T03:13:48;96056.00;;;4.42;24.74
59829;BME280;45708;51.848;107.620;2023-04-22T03:18:49;95993.13;;;4.25;24.40
59829;BME280;45708;51.848;107.620;2023-04-22T03:23:50;96037.50;;;4.94;23.85
59829;BME280;45708;51.848;107.620;2023-04-22T03:28:50;96045.34;;;4.94;24.16
59829;BME280;45708;51.848;107.620;2023-04-22T03:33:51;96006.72;;;4.96;23.29
59829;BME280;45708;51.848;107.620;2023-04-22T03:38:52;96018.22;;;5.11;23.88
59829;BME280;45708;51.848;107.620;2023-04-22T03:43:53;95988.56;;;4.86;23.56
59829;BME280;45708;51.848;107.620;2023-04-22T03:48:54;95948.97;;;4.97;23.48
59829;BME280;45708;51.848;107.620;2023-04-22T03:53:55;95982.50;;;5.50;22.60
59829;BME280;45708;51.848;107.620;2023-04-22T03:58:55;95987.97;;;6.13;22.75
59829;BME280;45708;51.848;107.620;2023-04-22T04:03:56;95994.56;;;6.48;22.34
59829;BME280;45708;51.848;107.620;2023-04-22T04:08:57;95978.69;;;6.41;21.87
59829;BME280;45708;51.848;107.620;2023-04-22T04:13:58;95984.25;;;6.38;21.01
59829;BME280;45708;51.848;107.620;2023-04-22T04:18:59;95980.88;;;6.60;21.69
59829;BME280;45708;51.848;107.620;2023-04-22T04:24:01;95963.81;;;6.64;20.63
59829;BME280;45708;51.848;107.620;2023-04-22T04:29:02;95985.47;;;6.89;20.45
59829;BME280;45708;51.848;107.620;2023-04-22T04:34:03;95981.59;;;7.08;18.78
59829;BME280;45708;51.848;107.620;2023-04-22T04:39:04;95982.94;;;6.73;18.54
59829;BME280;45708;51.848;107.620;2023-04-22T04:44:05;95974.59;;;6.69;19.48
59829;BME280;45708;51.848;107.620;2023-04-22T04:49:06;95962.16;;;5.85;18.63
59829;BME280;45708;51.848;107.620;2023-04-22T04:54:07;95974.59;;;5.91;19.12
59829;BME280;45708;51.848;107.620;2023-04-22T04:59:08;95978.25;;;6.29;19.43
59829;BME280;45708;51.848;107.620;2023-04-22T05:04:09;95968.00;;;6.74;18.80
59829;BME280;45708;51.848;107.620;2023-04-22T05:09:10;95954.38;;;7.01;16.52
59829;BME280;45708;51.848;107.620;2023-04-22T05:14:10;95954.25;;;6.71;17.05
59829;BME280;45708;51.848;107.620;2023-04-22T05:19:12;95961.56;;;7.07;17.13
59829;BME280;45708;51.848;107.620;2023-04-22T05:24:14;95954.94;;;7.34;17.94
59829;BME280;45708;51.848;107.620;2023-04-22T05:29:15;95938.69;;;7.30;17.48
59829;BME280;45708;51.848;107.620;2023-04-22T05:34:16;95937.69;;;6.94;17.75
59829;BME280;45708;51.848;107.620;2023-04-22T05:39:17;95927.75;;;7.04;18.55
59829;BME280;45708;51.848;107.620;2023-04-22T05:44:17;95932.00;;;6.59;18.45
59829;BME280;45708;51.848;107.620;2023-04-22T05:49:18;95930.41;;;6.50;18.76
59829;BME280;45708;51.848;107.620;2023-04-22T05:54:19;95919.53;;;6.30;18.35
59829;BME280;45708;51.848;107.620;2023-04-22T05:59:20;95932.03;;;6.51;18.38
59829;BME280;45708;51.848;107.620;2023-04-22T06:04:21;95913.13;;;6.33;18.61
59829;BME280;45708;51.848;107.620;2023-04-22T06:09:22;95916.72;;;6.32;19.16
59829;BME280;45708;51.848;107.620;2023-04-22T06:14:22;95918.53;;;6.62;19.08
59829;BME280;45708;51.848;107.620;2023-04-22T06:19:23;95899.03;;;6.80;18.61
59829;BME280;45708;51.848;107.620;2023-04-22T06:24:24;95901.91;;;6.93;18.84
59829;BME280;45708;51.848;107.620;2023-04-22T06:29:25;95905.75;;;7.43;18.13
59829;BME280;45708;51.848;107.620;2023-04-22T06:34:26;95891.34;;;7.68;18.71
59829;BME280;45708;51.848;107.620;2023-04-22T06:39:26;95903.63;;;7.38;17.61
59829;BME280;45708;51.848;107.620;2023-04-22T06:44:28;95894.41;;;7.57;17.97
59829;BME280;45708;51.848;107.620;2023-04-22T06:49:29;95892.81;;;7.85;17.79
59829;BME280;45708;51.848;107.620;2023-04-22T06:54:29;95895.69;;;7.76;18.04
59829;BME280;45708;51.848;107.620;2023-04-22T06:59:30;95891.06;;;7.48;17.74
59829;BME280;45708;51.848;107.620;2023-04-22T07:04:31;95881.91;;;7.44;17.92
59829;BME280;45708;51.848;107.620;2023-04-22T07:09:32;95890.13;;;7.26;18.42
59829;BME280;45708;51.848;107.620;2023-04-22T07:14:33;95890.44;;;7.46;17.66
59829;BME280;45708;51.848;107.620;2023-04-22T07:19:33;95889.41;;;7.32;18.16
59829;BME280;45708;51.848;107.620;2023-04-22T07:24:34;95888.66;;;6.86;16.99
59829;BME280;45708;51.848;107.620;2023-04-22T07:29:35;95894.66;;;6.49;17.79
59829;BME280;45708;51.848;107.620;2023-04-22T07:34:36;95893.22;;;6.47;17.40
59829;BME280;45708;51.848;107.620;2023-04-22T07:39:36;95869.59;;;6.16;17.04
59829;BME280;45708;51.848;107.620;2023-04-22T07:44:37;95862.84;;;6.21;16.89
59829;BME280;45708;51.848;107.620;2023-04-22T07:49:39;95882.81;;;6.53;17.72
59829;BME280;45708;51.848;107.620;2023-04-22T07:54:40;95884.50;;;6.46;17.12
59829;BME280;45708;51.848;107.620;2023-04-22T07:59:41;95884.53;;;6.38;16.95
59829;BME280;45708;51.848;107.620;2023-04-22T08:04:41;95881.53;;;6.49;17.79
59829;BME280;45708;51.848;107.620;2023-04-22T08:09:42;95873.19;;;6.46;17.71
59829;BME280;45708;51.848;107.620;2023-04-22T08:14:43;95853.19;;;6.45;16.76
59829;BME280;45708;51.848;107.620;2023-04-22T08:19:44;95851.69;;;6.50;17.63
59829;BME280;45708;51.848;107.620;2023-04-22T08:24:45;95862.22;;;6.88;16.99
59829;BME280;45708;51.848;107.620;2023-04-22T08:29:46;95860.81;;;6.77;17.96
59829;BME280;45708;51.848;107.620;2023-04-22T08:34:47;95869.78;;;6.37;18.21
59829;BME280;45708;51.848;107.620;2023-04-22T08:39:47;95854.81;;;6.23;17.95
59829;BME280;45708;51.848;107.620;2023-04-22T08:44:49;95856.41;;;6.55;17.88
59829;BME280;45708;51.848;107.620;2023-04-22T08:49:53;95859.47;;;6.58;17.64
59829;BME280;45708;51.848;107.620;2023-04-22T08:54:54;95855.72;;;6.61;17.03
59829;BME280;45708;51.848;107.620;2023-04-22T08:59:55;95862.06;;;6.66;17.42
59829;BME280;45708;51.848;107.620;2023-04-22T09:04:57;95854.88;;;6.60;17.46
59829;BME280;45708;51.848;107.620;2023-04-22T09:09:58;95860.53;;;6.49;17.75
59829;BME280;45708;51.848;107.620;2023-04-22T09:14:59;95864.44;;;6.53;18.26
59829;BME280;45708;51.848;107.620;2023-04-22T09:20:01;95863.28;;;6.56;18.29
59829;BME280;45708;51.848;107.620;2023-04-22T09:25:27;95865.97;;;6.48;17.99
59829;BME280;45708;51.848;107.620;2023-04-22T09:30:34;95869.50;;;6.55;18.53
59829;BME280;45708;51.848;107.620;2023-04-22T09:35:37;95868.34;;;6.57;17.90
59829;BME280;45708;51.848;107.620;2023-04-22T09:40:41;95867.72;;;6.55;17.44
59829;BME280;45708;51.848;107.620;2023-04-22T09:45:43;95874.41;;;6.81;18.23
59829;BME280;45708;51.848;107.620;2023-04-22T09:50:47;95874.75;;;6.78;17.87
59829;BME280;45708;51.848;107.620;2023-04-22T09:55:53;95875.72;;;6.85;17.08
59829;BME280;45708;51.848;107.620;2023-04-22T10:00:56;95850.41;;;6.46;16.86
59829;BME280;45708;51.848;107.620;2023-04-22T10:05:58;95884.63;;;6.76;17.04
59829;BME280;45708;51.848;107.620;2023-04-22T10:10:59;95891.47;;;6.85;17.66
59829;BME280;45708;51.848;107.620;2023-04-22T10:15:59;95889.00;;;6.60;17.62
59829;BME280;45708;51.848;107.620;2023-04-22T10:21:01;95889.78;;;6.38;17.23
59829;BME280;45708;51.848;107.620;2023-04-22T10:26:04;95885.97;;;6.18;17.43
59829;BME280;45708;51.848;107.620;2023-04-22T10:31:05;95893.13;;;6.01;17.48
59829;BME280;45708;51.848;107.620;2023-04-22T10:36:16;95891.41;;;5.69;17.64
59829;BME280;45708;51.848;107.620;2023-04-22T10:41:22;95895.56;;;5.47;17.96
59829;BME280;45708;51.848;107.620;2023-04-22T10:51:44;95890.88;;;5.02;18.54
59829;BME280;45708;51.848;107.620;2023-04-22T10:57:03;95907.56;;;4.76;18.36
59829;BME280;45708;51.848;107.620;2023-04-22T11:02:05;95911.47;;;4.56;18.43
59829;BME280;45708;51.848;107.620;2023-04-22T11:17:36;95928.69;;;4.16;19.01
59829;BME280;45708;51.848;107.620;2023-04-22T11:22:42;95939.25;;;3.98;18.82
59829;BME280;45708;51.848;107.620;2023-04-22T11:27:45;95939.47;;;3.79;18.79
59829;BME280;45708;51.848;107.620;2023-04-22T11:32:54;95930.22;;;3.59;19.10
59829;BME280;45708;51.848;107.620;2023-04-22T11:38:03;95943.88;;;3.45;19.30
59829;BME280;45708;51.848;107.620;2023-04-22T11:43:05;95942.88;;;3.20;19.48
59829;BME280;45708;51.848;107.620;2023-04-22T11:48:07;95945.53;;;3.02;19.61
59829;BME280;45708;51.848;107.620;2023-04-22T11:53:17;95964.84;;;2.73;19.80
59829;BME280;45708;51.848;107.620;2023-04-22T11:58:27;95969.25;;;2.55;19.93
59829;BME280;45708;51.848;107.620;2023-04-22T12:03:29;95969.13;;;2.29;20.66
59829;BME280;45708;51.848;107.620;2023-04-22T12:08:33;95974.47;;;2.10;20.47
59829;BME280;45708;51.848;107.620;2023-04-22T12:18:51;95988.84;;;1.77;21.23
59829;BME280;45708;51.848;107.620;2023-04-22T12:24:00;96000.72;;;1.62;21.83
59829;BME280;45708;51.848;107.620;2023-04-22T12:29:01;95991.97;;;1.34;21.55
59829;BME280;45708;51.848;107.620;2023-04-22T12:34:02;96016.38;;;1.33;21.63
59829;BME280;45708;51.848;107.620;2023-04-22T12:39:03;95995.03;;;1.10;21.84
59829;BME280;45708;51.848;107.620;2023-04-22T12:44:04;96019.13;;;1.12;21.56
59829;BME280;45708;51.848;107.620;2023-04-22T12:49:05;96032.56;;;1.07;21.91
59829;BME280;45708;51.848;107.620;2023-04-22T12:54:06;96033.66;;;0.95;21.96
59829;BME280;45708;51.848;107.620;2023-04-22T12:59:06;96043.22;;;0.95;22.03
59829;BME280;45708;51.848;107.620;2023-04-22T13:04:07;96053.66;;;0.85;22.20
59829;BME280;45708;51.848;107.620;2023-04-22T13:09:08;96050.75;;;0.69;22.60
59829;BME280;45708;51.848;107.620;2023-04-22T13:14:09;96037.16;;;0.46;22.58
59829;BME280;45708;51.848;107.620;2023-04-22T13:19:11;96049.59;;;0.42;22.92
59829;BME280;45708;51.848;107.620;2023-04-22T13:24:14;96077.50;;;0.40;22.81
59829;BME280;45708;51.848;107.620;2023-04-22T13:29:15;96081.16;;;0.28;23.65
59829;BME280;45708;51.848;107.620;2023-04-22T13:34:16;96092.00;;;0.12;24.60
59829;BME280;45708;51.848;107.620;2023-04-22T13:39:17;96073.50;;;-0.25;25.01
59829;BME280;45708;51.848;107.620;2023-04-22T13:44:18;96062.63;;;-0.61;26.00
59829;BME280;45708;51.848;107.620;2023-04-22T13:49:22;96092.06;;;-0.71;26.90
59829;BME280;45708;51.848;107.620;2023-04-22T13:54:23;96111.81;;;-0.80;26.27
59829;BME280;45708;51.848;107.620;2023-04-22T13:59:26;96113.47;;;-0.90;26.66
59829;BME280;45708;51.848;107.620;2023-04-22T14:04:29;96109.97;;;-1.00;26.35
59829;BME280;45708;51.848;107.620;2023-04-22T14:09:30;96116.34;;;-1.04;26.45
59829;BME280;45708;51.848;107.620;2023-04-22T14:14:31;96126.72;;;-1.04;26.47
59829;BME280;45708;51.848;107.620;2023-04-22T14:19:38;96122.53;;;-1.16;27.39
59829;BME280;45708;51.848;107.620;2023-04-22T14:24:39;96127.97;;;-1.42;27.99
59829;BME280;45708;51.848;107.620;2023-04-22T14:29:56;96139.56;;;-1.57;28.46
59829;BME280;45708;51.848;107.620;2023-04-22T14:35:04;96131.28;;;-1.85;28.73
59829;BME280;45708;51.848;107.620;2023-04-22T14:40:11;96138.38;;;-1.98;29.17
59829;BME280;45708;51.848;107.620;2023-04-22T14:45:26;96140.13;;;-1.98;29.34
59829;BME280;45708;51.848;107.620;2023-04-22T14:50:27;96143.53;;;-2.09;29.02
59829;BME280;45708;51.848;107.620;2023-04-22T14:55:28;96143.06;;;-2.14;29.76
59829;BME280;45708;51.848;107.620;2023-04-22T15:00:29;96149.84;;;-2.24;30.53
59829;BME280;45708;51.848;107.620;2023-04-22T15:05:31;96147.25;;;-2.24;30.17
59829;BME280;45708;51.848;107.620;2023-04-22T15:10:33;96153.88;;;-2.20;29.99
59829;BME280;45708;51.848;107.620;2023-04-22T15:15:33;96159.47;;;-2.37;30.57
59829;BME280;45708;51.848;107.620;2023-04-22T15:20:34;96156.47;;;-2.55;31.24
59829;BME280;45708;51.848;107.620;2023-04-22T15:25:35;96159.72;;;-2.64;31.08
59829;BME280;45708;51.848;107.620;2023-04-22T15:30:36;96163.84;;;-2.62;30.67
59829;BME280;45708;51.848;107.620;2023-04-22T15:35:37;96159.34;;;-2.71;31.19
59829;BME280;45708;51.848;107.620;2023-04-22T15:40:38;96167.78;;;-2.80;31.88
59829;BME280;45708;51.848;107.620;2023-04-22T15:45:39;96161.75;;;-2.81;31.65
59829;BME280;45708;51.848;107.620;2023-04-22T15:50:39;96176.03;;;-2.75;31.38
59829;BME280;45708;51.848;107.620;2023-04-22T15:55:41;96166.34;;;-2.84;31.69
59829;BME280;45708;51.848;107.620;2023-04-22T16:00:42;96180.31;;;-2.87;32.27
59829;BME280;45708;51.848;107.620;2023-04-22T16:05:43;96171.63;;;-3.10;32.66
59829;BME280;45708;51.848;107.620;2023-04-22T16:10:45;96167.13;;;-3.31;33.12
59829;BME280;45708;51.848;107.620;2023-04-22T16:15:46;96182.19;;;-3.25;33.47
59829;BME280;45708;51.848;107.620;2023-04-22T16:20:47;96179.94;;;-3.30;33.80
59829;BME280;45708;51.848;107.620;2023-04-22T16:25:48;96197.94;;;-3.28;34.17
59829;BME280;45708;51.848;107.620;2023-04-22T16:30:49;96175.94;;;-3.47;34.24
59829;BME280;45708;51.848;107.620;2023-04-22T16:35:50;96201.06;;;-3.36;33.67
59829;BME280;45708;51.848;107.620;2023-04-22T16:40:51;96196.00;;;-3.38;33.90
59829;BME280;45708;51.848;107.620;2023-04-22T16:45:52;96202.59;;;-3.46;34.39
59829;BME280;45708;51.848;107.620;2023-04-22T16:50:52;96211.22;;;-3.58;34.60
59829;BME280;45708;51.848;107.620;2023-04-22T16:55:53;96209.47;;;-3.71;34.94
59829;BME280;45708;51.848;107.620;2023-04-22T17:00:54;96208.41;;;-3.81;34.27
59829;BME280;45708;51.848;107.620;2023-04-22T17:05:55;96197.28;;;-4.07;36.80
59829;BME280;45708;51.848;107.620;2023-04-22T17:10:56;96210.38;;;-4.10;37.55
59829;BME280;45708;51.848;107.620;2023-04-22T17:15:57;96202.53;;;-4.08;36.67
59829;BME280;45708;51.848;107.620;2023-04-22T17:20:58;96144.91;;;-4.47;36.75
59829;BME280;45708;51.848;107.620;2023-04-22T17:25:58;96201.09;;;-4.12;35.62
59829;BME280;45708;51.848;107.620;2023-04-22T17:30:59;96206.25;;;-4.12;35.90
59829;BME280;45708;51.848;107.620;2023-04-22T17:36:00;96200.16;;;-4.11;36.31
59829;BME280;45708;51.848;107.620;2023-04-22T17:41:01;96198.22;;;-4.20;36.82
59829;BME280;45708;51.848;107.620;2023-04-22T17:46:02;96200.25;;;-4.25;36.69
59829;BME280;45708;51.848;107.620;2023-04-22T17:51:03;96196.53;;;-4.34;37.78
59829;BME280;45708;51.848;107.620;2023-04-22T17:56:04;96194.44;;;-4.42;37.69
59829;BME280;45708;51.848;107.620;2023-04-22T18:01:06;96193.59;;;-4.42;37.87
59829;BME280;45708;51.848;107.620;2023-04-22T18:06:07;96181.03;;;-4.47;37.87
59829;BME280;45708;51.848;107.620;2023-04-22T18:11:08;96183.28;;;-4.55;38.55
59829;BME280;45708;51.848;107.620;2023-04-22T18:16:08;96197.31;;;-4.59;38.42
59829;BME280;45708;51.848;107.620;2023-04-22T18:21:09;96182.31;;;-4.67;39.03
59829;BME280;45708;51.848;107.620;2023-04-22T18:26:10;96192.50;;;-4.78;38.24
59829;BME280;45708;51.848;107.620;2023-04-22T18:31:13;96189.38;;;-4.83;38.65
59829;BME280;45708;51.848;107.620;2023-04-22T18:36:14;96173.25;;;-4.99;39.46
59829;BME280;45708;51.848;107.620;2023-04-22T18:41:15;96193.56;;;-4.95;39.21
59829;BME280;45708;51.848;107.620;2023-04-22T18:46:16;96187.44;;;-5.06;40.48
59829;BME280;45708;51.848;107.620;2023-04-22T18:51:17;96190.72;;;-5.17;40.29
59829;BME280;45708;51.848;107.620;2023-04-22T18:56:17;96180.75;;;-5.23;41.09
59829;BME280;45708;51.848;107.620;2023-04-22T19:01:18;96169.94;;;-5.42;41.80
59829;BME280;45708;51.848;107.620;2023-04-22T19:06:19;96183.66;;;-5.42;41.92
59829;BME280;45708;51.848;107.620;2023-04-22T19:11:21;96176.22;;;-5.46;40.90
59829;BME280;45708;51.848;107.620;2023-04-22T19:16:22;96180.31;;;-5.57;41.45
59829;BME280;45708;51.848;107.620;2023-04-22T19:21:23;96178.78;;;-5.46;40.89
59829;BME280;45708;51.848;107.620;2023-04-22T19:26:24;96183.75;;;-5.43;40.66
59829;BME280;45708;51.848;107.620;2023-04-22T19:31:26;96182.19;;;-5.46;39.29
59829;BME280;45708;51.848;107.620;2023-04-22T19:36:27;96161.91;;;-5.65;40.73
59829;BME280;45708;51.848;107.620;2023-04-22T19:41:29;96182.16;;;-5.73;40.16
59829;BME280;45708;51.848;107.620;2023-04-22T19:46:30;96165.59;;;-5.83;40.31
59829;BME280;45708;51.848;107.620;2023-04-22T19:51:31;96183.69;;;-5.85;41.47
59829;BME280;45708;51.848;107.620;2023-04-22T19:56:32;96192.66;;;-5.90;40.99
59829;BME280;45708;51.848;107.620;2023-04-22T20:01:34;96181.09;;;-5.97;41.58
59829;BME280;45708;51.848;107.620;2023-04-22T20:06:35;96189.16;;;-6.03;42.28
59829;BME280;45708;51.848;107.620;2023-04-22T20:11:36;96190.22;;;-6.22;41.27
59829;BME280;45708;51.848;107.620;2023-04-22T20:16:37;96175.53;;;-6.34;41.73
59829;BME280;45708;51.848;107.620;2023-04-22T20:21:38;96189.13;;;-6.32;42.45
59829;BME280;45708;51.848;107.620;2023-04-22T20:26:39;96184.72;;;-6.30;41.76
59829;BME280;45708;51.848;107.620;2023-04-22T20:31:40;96178.84;;;-6.32;42.20
59829;BME280;45708;51.848;107.620;2023-04-22T20:36:41;96176.63;;;-6.38;43.81
59829;BME280;45708;51.848;107.620;2023-04-22T20:41:42;96194.28;;;-6.32;44.06
59829;BME280;45708;51.848;107.620;2023-04-22T20:46:43;96203.88;;;-6.50;44.24
59829;BME280;45708;51.848;107.620;2023-04-22T20:51:46;96197.16;;;-6.52;45.17
59829;BME280;45708;51.848;107.620;2023-04-22T20:56:47;96203.16;;;-6.67;45.25
59829;BME280;45708;51.848;107.620;2023-04-22T21:01:48;96199.03;;;-7.00;46.07
59829;BME280;45708;51.848;107.620;2023-04-22T21:06:50;96212.69;;;-7.31;47.53
59829;BME280;45708;51.848;107.620;2023-04-22T21:11:51;96211.63;;;-7.58;47.85
59829;BME280;45708;51.848;107.620;2023-04-22T21:17:02;96214.47;;;-7.64;47.31
59829;BME280;45708;51.848;107.620;2023-04-22T21:22:04;96214.81;;;-7.71;47.72
59829;BME280;45708;51.848;107.620;2023-04-22T21:27:05;96218.13;;;-7.69;48.59
59829;BME280;45708;51.848;107.620;2023-04-22T21:32:06;96198.75;;;-7.74;49.67
59829;BME280;45708;51.848;107.620;2023-04-22T21:37:07;96221.59;;;-7.70;50.38
59829;BME280;45708;51.848;107.620;2023-04-22T21:42:08;96209.06;;;-7.58;48.65
59829;BME280;45708;51.848;107.620;2023-04-22T21:47:09;96217.00;;;-7.31;48.48
59829;BME280;45708;51.848;107.620;2023-04-22T21:52:10;96206.09;;;-7.19;48.26
59829;BME280;45708;51.848;107.620;2023-04-22T21:57:11;96211.91;;;-7.01;47.40
59829;BME280;45708;51.848;107.620;2023-04-22T22:02:13;96215.66;;;-6.91;46.98
59829;BME280;45708;51.848;107.620;2023-04-22T22:07:13;96220.94;;;-6.79;47.11
59829;BME280;45708;51.848;107.620;2023-04-22T22:12:14;96226.19;;;-6.66;46.27
59829;BME280;45708;51.848;107.620;2023-04-22T22:17:15;96219.91;;;-6.60;47.17
59829;BME280;45708;51.848;107.620;2023-04-22T22:22:16;96233.69;;;-6.47;46.44
59829;BME280;45708;51.848;107.620;2023-04-22T22:27:17;96225.53;;;-5.53;45.65
59829;BME280;45708;51.848;107.620;2023-04-22T22:32:18;96221.66;;;-3.98;43.66
59829;BME280;45708;51.848;107.620;2023-04-22T22:37:19;96227.88;;;-2.41;39.25
59829;BME280;45708;51.848;107.620;2023-04-22T22:42:20;96231.53;;;-1.51;38.50
59829;BME280;45708;51.848;107.620;2023-04-22T22:47:20;96235.56;;;-0.59;37.50
59829;BME280;45708;51.848;107.620;2023-04-22T22:52:21;96230.34;;;-0.48;35.89
59829;BME280;45708;51.848;107.620;2023-04-22T22:57:22;96243.28;;;-0.37;35.98
59829;BME280;45708;51.848;107.620;2023-04-22T23:02:23;96236.66;;;-0.41;35.72
59829;BME280;45708;51.848;107.620;2023-04-22T23:07:24;96243.72;;;0.00;35.29
59829;BME280;45708;51.848;107.620;2023-04-22T23:12:24;96254.59;;;0.56;34.50
59829;BME280;45708;51.848;107.620;2023-04-22T23:17:25;96245.16;;;1.36;32.46
59829;BME280;45708;51.848;107.620;2023-04-22T23:22:26;96241.25;;;1.70;31.77
59829;BME280;45708;51.848;107.620;2023-04-22T23:27:28;96241.31;;;2.56;30.68
59829;BME280;45708;51.848;107.620;2023-04-22T23:32:30;96246.72;;;3.46;28.10
59829;BME280;45708;51.848;107.620;2023-04-22T23:37:33;96254.00;;;3.25;26.38
59829;BME280;45708;51.848;107.620;2023-04-22T23:42:36;96246.00;;;4.43;27.07
59829;BME280;45708;51.848;107.620;2023-04-22T23:47:37;96229.69;;;5.59;25.40
59829;BME280;45708;51.848;107.620;2023-04-22T23:52:38;96244.75;;;5.49;24.72
59829;BME280;45708;51.848;107.620;2023-04-22T23:57:39;96204.34;;;5.76;24.81
